sensor_id;sensor_type;location;lat;lon;timestamp;temperature;humidity
4548;DHT22;2286;51.570;7.090;2024-02-21T00:00:54;9.00;99.90
4548;DHT22;2286;51.570;7.090;2024-02-21T00:03:23;9.00;99.90
4548;DHT22;2286;51.570;7.090;2024-02-21T00:05:50;9.00;99.90
4548;DHT22;2286;51.570;7.090;2024-02-21T00:08:17;9.00;99.90
4548;DHT22;2286;51.570;7.090;2024-02-21T00:10:43;9.00;99.90
4548;DHT22;2286;51.570;7.090;2024-02-21T00:13:10;9.00;99.90
4548;DHT22;2286;51.570;7.090;2024-02-21T00:15:37;9.00;99.90
4548;DHT22;2286;51.570;7.090;2024-02-21T00:18:04;9.00;99.90
4548;DHT22;2286;51.570;7.090;2024-02-21T00:20:33;9.00;99.90
4548;DHT22;2286;51.570;7.090;2024-02-21T00:23:00;9.10;99.90
4548;DHT22;2286;51.570;7.090;2024-02-21T00:25:27;9.00;99.90
4548;DHT22;2286;51.570;7.090;2024-02-21T00:27:53;9.00;99.90
4548;DHT22;2286;51.570;7.090;2024-02-21T00:30:20;9.00;99.90
4548;DHT22;2286;51.570;7.090;2024-02-21T00:32:47;9.00;99.90
4548;DHT22;2286;51.570;7.090;2024-02-21T00:35:14;9.00;99.90
4548;DHT22;2286;51.570;7.090;2024-02-21T00:37:43;9.00;99.90
4548;DHT22;2286;51.570;7.090;2024-02-21T00:40:10;9.00;99.90
4548;DHT22;2286;51.570;7.090;2024-02-21T00:42:37;9.00;99.90
4548;DHT22;2286;51.570;7.090;2024-02-21T00:45:05;9.00;99.90
4548;DHT22;2286;51.570;7.090;2024-02-21T00:47:32;9.00;99.90
4548;DHT22;2286;51.570;7.090;2024-02-21T00:49:59;9.00;99.90
4548;DHT22;2286;51.570;7.090;2024-02-21T00:52:26;9.00;99.90
4548;DHT22;2286;51.570;7.090;2024-02-21T00:54:54;9.00;99.90
4548;DHT22;2286;51.570;7.090;2024-02-21T00:57:21;9.00;99.90
4548;DHT22;2286;51.570;7.090;2024-02-21T00:59:49;9.00;99.90
4548;DHT22;2286;51.570;7.090;2024-02-21T01:02:16;9.00;99.90
4548;DHT22;2286;51.570;7.090;2024-02-21T01:04:44;9.00;99.90
4548;DHT22;2286;51.570;7.090;2024-02-21T01:07:11;9.00;99.90
4548;DHT22;2286;51.570;7.090;2024-02-21T01:09:37;9.00;99.90
4548;DHT22;2286;51.570;7.090;2024-02-21T01:12:06;9.00;99.90
4548;DHT22;2286;51.570;7.090;2024-02-21T01:14:33;9.00;99.90
4548;DHT22;2286;51.570;7.090;2024-02-21T01:17:00;9.00;99.90
4548;DHT22;2286;51.570;7.090;2024-02-21T01:19:27;9.00;99.90
4548;DHT22;2286;51.570;7.090;2024-02-21T01:21:54;9.00;99.90
4548;DHT22;2286;51.570;7.090;2024-02-21T01:24:21;9.00;99.90
4548;DHT22;2286;51.570;7.090;2024-02-21T01:26:47;9.00;99.90
4548;DHT22;2286;51.570;7.090;2024-02-21T01:29:16;9.00;99.90
4548;DHT22;2286;51.570;7.090;2024-02-21T01:31:42;9.00;99.90
4548;DHT22;2286;51.570;7.090;2024-02-21T01:34:09;9.00;99.90
4548;DHT22;2286;51.570;7.090;2024-02-21T01:36:36;9.00;99.90
4548;DHT22;2286;51.570;7.090;2024-02-21T01:39:03;9.00;99.90
4548;DHT22;2286;51.570;7.090;2024-02-21T01:41:30;9.00;99.90
4548;DHT22;2286;51.570;7.090;2024-02-21T01:43:57;9.00;99.90
4548;DHT22;2286;51.570;7.090;2024-02-21T01:46:26;9.00;99.90
4548;DHT22;2286;51.570;7.090;2024-02-21T01:48:56;9.00;99.90
4548;DHT22;2286;51.570;7.090;2024-02-21T01:51:23;8.90;99.90
4548;DHT22;2286;51.570;7.090;2024-02-21T01:53:51;8.90;99.90
4548;DHT22;2286;51.570;7.090;2024-02-21T01:56:18;9.00;99.90
4548;DHT22;2286;51.570;7.090;2024-02-21T01:58:46;8.90;99.90
4548;DHT22;2286;51.570;7.090;2024-02-21T02:01:15;8.90;99.90
4548;DHT22;2286;51.570;7.090;2024-02-21T02:03:45;9.00;99.90
4548;DHT22;2286;51.570;7.090;2024-02-21T02:06:12;8.90;99.90
4548;DHT22;2286;51.570;7.090;2024-02-21T02:08:39;8.90;99.90
4548;DHT22;2286;51.570;7.090;2024-02-21T02:11:06;8.90;99.90
4548;DHT22;2286;51.570;7.090;2024-02-21T02:13:33;8.90;99.90
4548;DHT22;2286;51.570;7.090;2024-02-21T02:16:00;8.90;99.90
4548;DHT22;2286;51.570;7.090;2024-02-21T02:18:27;8.90;99.90
4548;DHT22;2286;51.570;7.090;2024-02-21T02:20:55;8.90;99.90
4548;DHT22;2286;51.570;7.090;2024-02-21T02:23:25;8.90;99.90
4548;DHT22;2286;51.570;7.090;2024-02-21T02:25:52;8.90;99.90
4548;DHT22;2286;51.570;7.090;2024-02-21T02:28:20;8.90;99.90
4548;DHT22;2286;51.570;7.090;2024-02-21T02:30:48;8.90;99.90
4548;DHT22;2286;51.570;7.090;2024-02-21T02:33:15;8.90;99.90
4548;DHT22;2286;51.570;7.090;2024-02-21T02:35:43;8.80;99.90
4548;DHT22;2286;51.570;7.090;2024-02-21T02:38:10;8.70;1.00
4548;DHT22;2286;51.570;7.090;2024-02-21T02:40:40;8.50;1.00
4548;DHT22;2286;51.570;7.090;2024-02-21T02:43:07;8.50;20.20
4548;DHT22;2286;51.570;7.090;2024-02-21T02:45:34;8.40;99.90
4548;DHT22;2286;51.570;7.090;2024-02-21T02:48:01;8.40;99.90
4548;DHT22;2286;51.570;7.090;2024-02-21T02:50:28;8.40;99.90
4548;DHT22;2286;51.570;7.090;2024-02-21T02:52:55;8.40;99.90
4548;DHT22;2286;51.570;7.090;2024-02-21T02:55:22;8.40;99.90
4548;DHT22;2286;51.570;7.090;2024-02-21T02:57:51;8.40;99.90
4548;DHT22;2286;51.570;7.090;2024-02-21T03:00:18;8.50;99.90
4548;DHT22;2286;51.570;7.090;2024-02-21T03:02:46;8.50;99.90
4548;DHT22;2286;51.570;7.090;2024-02-21T03:05:15;8.50;99.90
4548;DHT22;2286;51.570;7.090;2024-02-21T03:07:43;8.50;99.90
4548;DHT22;2286;51.570;7.090;2024-02-21T03:10:11;8.60;99.90
4548;DHT22;2286;51.570;7.090;2024-02-21T03:12:39;8.60;25.30
4548;DHT22;2286;51.570;7.090;2024-02-21T03:15:08;8.60;38.70
4548;DHT22;2286;51.570;7.090;2024-02-21T03:17:35;8.60;96.60
4548;DHT22;2286;51.570;7.090;2024-02-21T03:20:02;8.60;98.30
4548;DHT22;2286;51.570;7.090;2024-02-21T03:22:31;8.60;99.90
4548;DHT22;2286;51.570;7.090;2024-02-21T03:24:58;8.50;99.90
4548;DHT22;2286;51.570;7.090;2024-02-21T03:27:25;8.50;99.90
4548;DHT22;2286;51.570;7.090;2024-02-21T03:29:52;8.50;99.90
4548;DHT22;2286;51.570;7.090;2024-02-21T03:32:20;8.50;99.90
4548;DHT22;2286;51.570;7.090;2024-02-21T03:34:47;8.50;99.90
4548;DHT22;2286;51.570;7.090;2024-02-21T03:37:14;8.60;99.90
4548;DHT22;2286;51.570;7.090;2024-02-21T03:39:41;8.60;99.90
4548;DHT22;2286;51.570;7.090;2024-02-21T03:42:08;8.60;99.90
4548;DHT22;2286;51.570;7.090;2024-02-21T03:44:36;8.60;99.90
4548;DHT22;2286;51.570;7.090;2024-02-21T03:47:03;8.60;43.50
4548;DHT22;2286;51.570;7.090;2024-02-21T03:49:31;8.70;1.00
4548;DHT22;2286;51.570;7.090;2024-02-21T03:51:58;8.70;1.00
4548;DHT22;2286;51.570;7.090;2024-02-21T03:54:25;8.70;1.00
4548;DHT22;2286;51.570;7.090;2024-02-21T03:56:52;8.70;1.00
4548;DHT22;2286;51.570;7.090;2024-02-21T03:59:19;8.70;1.00
4548;DHT22;2286;51.570;7.090;2024-02-21T04:01:46;8.70;1.00
4548;DHT22;2286;51.570;7.090;2024-02-21T04:04:13;8.60;1.00
4548;DHT22;2286;51.570;7.090;2024-02-21T04:06:47;8.70;1.00
4548;DHT22;2286;51.570;7.090;2024-02-21T04:09:14;8.60;1.00
4548;DHT22;2286;51.570;7.090;2024-02-21T04:11:41;8.70;1.00
4548;DHT22;2286;51.570;7.090;2024-02-21T04:14:08;8.60;1.00
4548;DHT22;2286;51.570;7.090;2024-02-21T04:16:37;8.70;1.00
4548;DHT22;2286;51.570;7.090;2024-02-21T04:19:04;8.70;1.00
4548;DHT22;2286;51.570;7.090;2024-02-21T04:21:31;8.70;1.00
4548;DHT22;2286;51.570;7.090;2024-02-21T04:23:59;8.70;1.00
4548;DHT22;2286;51.570;7.090;2024-02-21T04:26:27;8.60;1.00
4548;DHT22;2286;51.570;7.090;2024-02-21T04:28:54;8.70;1.00
4548;DHT22;2286;51.570;7.090;2024-02-21T04:31:21;8.70;1.00
4548;DHT22;2286;51.570;7.090;2024-02-21T04:33:48;8.70;1.00
4548;DHT22;2286;51.570;7.090;2024-02-21T04:36:15;8.70;1.00
4548;DHT22;2286;51.570;7.090;2024-02-21T04:38:42;8.60;1.00
4548;DHT22;2286;51.570;7.090;2024-02-21T04:41:10;8.70;36.40
4548;DHT22;2286;51.570;7.090;2024-02-21T04:43:37;8.60;7.50
4548;DHT22;2286;51.570;7.090;2024-02-21T04:46:04;8.60;50.90
4548;DHT22;2286;51.570;7.090;2024-02-21T04:48:31;8.60;99.90
4548;DHT22;2286;51.570;7.090;2024-02-21T04:50:58;8.60;99.90
4548;DHT22;2286;51.570;7.090;2024-02-21T04:53:25;8.50;35.30
4548;DHT22;2286;51.570;7.090;2024-02-21T04:55:52;8.60;26.50
4548;DHT22;2286;51.570;7.090;2024-02-21T04:58:20;8.60;28.50
4548;DHT22;2286;51.570;7.090;2024-02-21T05:00:47;8.60;1.00
4548;DHT22;2286;51.570;7.090;2024-02-21T05:03:14;8.70;1.00
4548;DHT22;2286;51.570;7.090;2024-02-21T05:05:41;8.70;1.00
4548;DHT22;2286;51.570;7.090;2024-02-21T05:08:09;8.60;1.00
4548;DHT22;2286;51.570;7.090;2024-02-21T05:10:37;8.60;1.00
4548;DHT22;2286;51.570;7.090;2024-02-21T05:13:04;8.60;1.00
4548;DHT22;2286;51.570;7.090;2024-02-21T05:15:32;8.60;1.00
4548;DHT22;2286;51.570;7.090;2024-02-21T05:17:59;8.70;1.00
4548;DHT22;2286;51.570;7.090;2024-02-21T05:20:26;8.60;1.00
4548;DHT22;2286;51.570;7.090;2024-02-21T05:22:53;8.70;99.90
4548;DHT22;2286;51.570;7.090;2024-02-21T05:25:20;8.70;99.90
4548;DHT22;2286;51.570;7.090;2024-02-21T05:27:46;8.70;99.90
4548;DHT22;2286;51.570;7.090;2024-02-21T05:30:14;8.70;99.90
4548;DHT22;2286;51.570;7.090;2024-02-21T05:32:42;8.70;99.90
4548;DHT22;2286;51.570;7.090;2024-02-21T05:35:09;8.70;99.90
4548;DHT22;2286;51.570;7.090;2024-02-21T05:37:36;8.70;99.90
4548;DHT22;2286;51.570;7.090;2024-02-21T05:40:03;8.70;99.90
4548;DHT22;2286;51.570;7.090;2024-02-21T05:42:30;8.70;99.90
4548;DHT22;2286;51.570;7.090;2024-02-21T05:44:57;8.70;99.90
4548;DHT22;2286;51.570;7.090;2024-02-21T05:47:24;8.70;99.40
4548;DHT22;2286;51.570;7.090;2024-02-21T05:49:53;8.70;81.20
4548;DHT22;2286;51.570;7.090;2024-02-21T05:52:20;8.70;73.60
4548;DHT22;2286;51.570;7.090;2024-02-21T05:54:47;8.70;51.50
4548;DHT22;2286;51.570;7.090;2024-02-21T05:57:17;8.70;42.70
4548;DHT22;2286;51.570;7.090;2024-02-21T05:59:44;8.70;73.10
4548;DHT22;2286;51.570;7.090;2024-02-21T06:02:10;8.70;1.00
4548;DHT22;2286;51.570;7.090;2024-02-21T06:04:37;8.70;1.00
4548;DHT22;2286;51.570;7.090;2024-02-21T06:07:06;8.70;1.00
4548;DHT22;2286;51.570;7.090;2024-02-21T06:09:33;8.70;1.00
4548;DHT22;2286;51.570;7.090;2024-02-21T06:12:00;8.70;1.00
4548;DHT22;2286;51.570;7.090;2024-02-21T06:14:27;8.80;1.00
4548;DHT22;2286;51.570;7.090;2024-02-21T06:16:54;8.70;1.00
4548;DHT22;2286;51.570;7.090;2024-02-21T06:19:21;8.70;1.00
4548;DHT22;2286;51.570;7.090;2024-02-21T06:21:48;8.80;1.00
4548;DHT22;2286;51.570;7.090;2024-02-21T06:24:16;8.70;1.00
4548;DHT22;2286;51.570;7.090;2024-02-21T06:26:43;8.70;1.00
4548;DHT22;2286;51.570;7.090;2024-02-21T06:29:11;8.80;1.00
4548;DHT22;2286;51.570;7.090;2024-02-21T06:31:39;8.70;1.00
4548;DHT22;2286;51.570;7.090;2024-02-21T06:34:06;8.70;1.00
4548;DHT22;2286;51.570;7.090;2024-02-21T06:36:33;8.80;1.00
4548;DHT22;2286;51.570;7.090;2024-02-21T06:39:00;8.80;1.00
4548;DHT22;2286;51.570;7.090;2024-02-21T06:41:28;8.80;1.00
4548;DHT22;2286;51.570;7.090;2024-02-21T06:43:56;8.80;1.00
4548;DHT22;2286;51.570;7.090;2024-02-21T06:46:23;8.80;1.00
4548;DHT22;2286;51.570;7.090;2024-02-21T06:48:51;8.80;1.00
4548;DHT22;2286;51.570;7.090;2024-02-21T06:51:18;8.80;1.00
4548;DHT22;2286;51.570;7.090;2024-02-21T06:53:45;8.80;1.00
4548;DHT22;2286;51.570;7.090;2024-02-21T06:56:12;8.80;1.00
4548;DHT22;2286;51.570;7.090;2024-02-21T06:58:40;8.80;1.00
4548;DHT22;2286;51.570;7.090;2024-02-21T07:01:07;8.90;1.00
4548;DHT22;2286;51.570;7.090;2024-02-21T07:03:34;8.90;99.90
4548;DHT22;2286;51.570;7.090;2024-02-21T07:06:01;8.90;99.90
4548;DHT22;2286;51.570;7.090;2024-02-21T07:08:28;8.90;99.90
4548;DHT22;2286;51.570;7.090;2024-02-21T07:10:55;8.90;99.90
4548;DHT22;2286;51.570;7.090;2024-02-21T07:13:22;9.00;99.90
4548;DHT22;2286;51.570;7.090;2024-02-21T07:15:50;9.00;99.90
4548;DHT22;2286;51.570;7.090;2024-02-21T07:18:17;9.00;99.90
4548;DHT22;2286;51.570;7.090;2024-02-21T07:20:45;8.90;99.90
4548;DHT22;2286;51.570;7.090;2024-02-21T07:23:12;9.00;99.90
4548;DHT22;2286;51.570;7.090;2024-02-21T07:25:39;9.00;99.90
4548;DHT22;2286;51.570;7.090;2024-02-21T07:28:06;9.00;99.90
4548;DHT22;2286;51.570;7.090;2024-02-21T07:30:34;9.00;99.90
4548;DHT22;2286;51.570;7.090;2024-02-21T07:33:03;9.10;99.90
4548;DHT22;2286;51.570;7.090;2024-02-21T07:35:30;9.10;99.90
4548;DHT22;2286;51.570;7.090;2024-02-21T07:37:57;9.10;99.90
4548;DHT22;2286;51.570;7.090;2024-02-21T07:40:24;9.20;99.90
4548;DHT22;2286;51.570;7.090;2024-02-21T07:42:51;9.20;99.90
4548;DHT22;2286;51.570;7.090;2024-02-21T07:45:18;9.20;97.20
4548;DHT22;2286;51.570;7.090;2024-02-21T07:47:47;9.30;99.90
4548;DHT22;2286;51.570;7.090;2024-02-21T07:50:16;9.30;39.90
4548;DHT22;2286;51.570;7.090;2024-02-21T07:52:43;9.30;24.40
4548;DHT22;2286;51.570;7.090;2024-02-21T07:55:10;9.30;1.00
4548;DHT22;2286;51.570;7.090;2024-02-21T07:57:37;9.30;23.60
4548;DHT22;2286;51.570;7.090;2024-02-21T08:00:05;9.30;8.90
4548;DHT22;2286;51.570;7.090;2024-02-21T08:02:35;9.30;1.00
4548;DHT22;2286;51.570;7.090;2024-02-21T08:05:02;9.40;6.30
4548;DHT22;2286;51.570;7.090;2024-02-21T08:07:31;9.40;1.00
4548;DHT22;2286;51.570;7.090;2024-02-21T08:09:58;9.40;1.00
4548;DHT22;2286;51.570;7.090;2024-02-21T08:12:25;9.40;1.00
4548;DHT22;2286;51.570;7.090;2024-02-21T08:14:52;9.40;1.00
4548;DHT22;2286;51.570;7.090;2024-02-21T08:17:19;9.40;1.00
4548;DHT22;2286;51.570;7.090;2024-02-21T08:19:47;9.50;1.00
4548;DHT22;2286;51.570;7.090;2024-02-21T08:22:14;9.50;1.00
4548;DHT22;2286;51.570;7.090;2024-02-21T08:24:43;9.50;1.00
4548;DHT22;2286;51.570;7.090;2024-02-21T08:27:10;9.50;1.00
4548;DHT22;2286;51.570;7.090;2024-02-21T08:29:37;9.50;1.00
4548;DHT22;2286;51.570;7.090;2024-02-21T08:32:04;9.60;1.00
4548;DHT22;2286;51.570;7.090;2024-02-21T08:34:31;9.60;1.00
4548;DHT22;2286;51.570;7.090;2024-02-21T08:37:00;9.60;1.00
4548;DHT22;2286;51.570;7.090;2024-02-21T08:39:27;9.70;1.00
4548;DHT22;2286;51.570;7.090;2024-02-21T08:41:57;9.70;1.00
4548;DHT22;2286;51.570;7.090;2024-02-21T08:44:24;9.60;1.00
4548;DHT22;2286;51.570;7.090;2024-02-21T08:46:51;9.70;1.00
4548;DHT22;2286;51.570;7.090;2024-02-21T08:49:18;9.70;1.00
4548;DHT22;2286;51.570;7.090;2024-02-21T08:51:45;9.70;1.00
4548;DHT22;2286;51.570;7.090;2024-02-21T08:54:13;9.80;1.00
4548;DHT22;2286;51.570;7.090;2024-02-21T08:56:39;9.80;1.00
4548;DHT22;2286;51.570;7.090;2024-02-21T08:59:08;9.80;1.00
4548;DHT22;2286;51.570;7.090;2024-02-21T09:01:35;9.70;1.00
4548;DHT22;2286;51.570;7.090;2024-02-21T09:04:02;9.60;14.80
4548;DHT22;2286;51.570;7.090;2024-02-21T09:06:30;9.60;1.00
4548;DHT22;2286;51.570;7.090;2024-02-21T09:08:59;9.60;1.00
4548;DHT22;2286;51.570;7.090;2024-02-21T09:11:25;9.50;1.00
4548;DHT22;2286;51.570;7.090;2024-02-21T09:13:53;9.60;1.00
4548;DHT22;2286;51.570;7.090;2024-02-21T09:16:21;9.50;1.00
4548;DHT22;2286;51.570;7.090;2024-02-21T09:18:49;9.60;1.00
4548;DHT22;2286;51.570;7.090;2024-02-21T09:21:16;9.70;1.00
4548;DHT22;2286;51.570;7.090;2024-02-21T09:23:43;9.70;1.00
4548;DHT22;2286;51.570;7.090;2024-02-21T09:26:11;9.90;1.00
4548;DHT22;2286;51.570;7.090;2024-02-21T09:28:41;9.80;1.00
4548;DHT22;2286;51.570;7.090;2024-02-21T09:31:09;9.90;1.00
4548;DHT22;2286;51.570;7.090;2024-02-21T09:33:37;10.00;1.00
4548;DHT22;2286;51.570;7.090;2024-02-21T09:36:05;10.00;99.90
4548;DHT22;2286;51.570;7.090;2024-02-21T09:38:32;10.00;1.00
4548;DHT22;2286;51.570;7.090;2024-02-21T09:41:00;10.00;1.00
4548;DHT22;2286;51.570;7.090;2024-02-21T09:43:31;9.90;1.00
4548;DHT22;2286;51.570;7.090;2024-02-21T09:46:00;9.90;99.90
4548;DHT22;2286;51.570;7.090;2024-02-21T09:48:39;10.00;99.90
4548;DHT22;2286;51.570;7.090;2024-02-21T09:51:09;10.20;99.90
4548;DHT22;2286;51.570;7.090;2024-02-21T09:53:37;10.30;99.90
4548;DHT22;2286;51.570;7.090;2024-02-21T09:56:07;10.30;99.90
4548;DHT22;2286;51.570;7.090;2024-02-21T09:58:34;10.50;99.90
4548;DHT22;2286;51.570;7.090;2024-02-21T10:01:01;10.50;99.90
4548;DHT22;2286;51.570;7.090;2024-02-21T10:03:32;10.50;99.90
4548;DHT22;2286;51.570;7.090;2024-02-21T10:06:01;10.50;99.90
4548;DHT22;2286;51.570;7.090;2024-02-21T10:08:28;10.60;99.90
4548;DHT22;2286;51.570;7.090;2024-02-21T10:10:55;10.50;99.90
4548;DHT22;2286;51.570;7.090;2024-02-21T10:13:26;10.40;99.90
4548;DHT22;2286;51.570;7.090;2024-02-21T10:16:04;10.30;99.90
4548;DHT22;2286;51.570;7.090;2024-02-21T10:18:31;10.20;99.90
4548;DHT22;2286;51.570;7.090;2024-02-21T10:21:07;10.20;99.90
4548;DHT22;2286;51.570;7.090;2024-02-21T10:23:42;10.10;99.90
4548;DHT22;2286;51.570;7.090;2024-02-21T10:26:09;10.30;99.90
4548;DHT22;2286;51.570;7.090;2024-02-21T10:28:37;10.40;99.90
4548;DHT22;2286;51.570;7.090;2024-02-21T10:31:08;10.40;99.90
4548;DHT22;2286;51.570;7.090;2024-02-21T10:33:35;10.60;99.90
4548;DHT22;2286;51.570;7.090;2024-02-21T10:36:08;10.60;65.60
4548;DHT22;2286;51.570;7.090;2024-02-21T10:38:37;10.50;57.90
4548;DHT22;2286;51.570;7.090;2024-02-21T10:41:05;10.30;86.70
4548;DHT22;2286;51.570;7.090;2024-02-21T10:43:38;10.40;99.90
4548;DHT22;2286;51.570;7.090;2024-02-21T10:46:07;10.30;99.90
4548;DHT22;2286;51.570;7.090;2024-02-21T10:48:42;10.40;99.90
4548;DHT22;2286;51.570;7.090;2024-02-21T10:51:15;10.30;99.90
4548;DHT22;2286;51.570;7.090;2024-02-21T10:53:47;10.30;99.90
4548;DHT22;2286;51.570;7.090;2024-02-21T10:56:22;10.20;99.90
4548;DHT22;2286;51.570;7.090;2024-02-21T10:58:51;10.30;99.90
4548;DHT22;2286;51.570;7.090;2024-02-21T11:01:19;10.40;99.90
4548;DHT22;2286;51.570;7.090;2024-02-21T11:03:46;10.50;99.90
4548;DHT22;2286;51.570;7.090;2024-02-21T11:06:17;10.50;96.50
4548;DHT22;2286;51.570;7.090;2024-02-21T11:08:44;10.50;22.90
4548;DHT22;2286;51.570;7.090;2024-02-21T11:11:12;10.50;1.00
4548;DHT22;2286;51.570;7.090;2024-02-21T11:13:43;10.50;1.00
4548;DHT22;2286;51.570;7.090;2024-02-21T11:16:12;10.60;1.00
4548;DHT22;2286;51.570;7.090;2024-02-21T11:18:48;10.60;1.00
4548;DHT22;2286;51.570;7.090;2024-02-21T11:21:16;10.80;1.00
4548;DHT22;2286;51.570;7.090;2024-02-21T11:23:43;11.00;1.00
4548;DHT22;2286;51.570;7.090;2024-02-21T11:26:10;11.20;1.00
4548;DHT22;2286;51.570;7.090;2024-02-21T11:28:44;11.30;1.00
4548;DHT22;2286;51.570;7.090;2024-02-21T11:31:14;11.20;1.00
4548;DHT22;2286;51.570;7.090;2024-02-21T11:33:41;11.20;1.00
4548;DHT22;2286;51.570;7.090;2024-02-21T11:36:09;11.20;1.00
4548;DHT22;2286;51.570;7.090;2024-02-21T11:38:37;11.30;1.00
4548;DHT22;2286;51.570;7.090;2024-02-21T11:41:08;11.30;1.00
4548;DHT22;2286;51.570;7.090;2024-02-21T11:43:36;11.40;1.00
4548;DHT22;2286;51.570;7.090;2024-02-21T11:46:03;11.50;1.00
4548;DHT22;2286;51.570;7.090;2024-02-21T11:48:32;11.50;1.00
4548;DHT22;2286;51.570;7.090;2024-02-21T11:50:59;11.40;1.00
4548;DHT22;2286;51.570;7.090;2024-02-21T11:53:26;11.40;1.00
4548;DHT22;2286;51.570;7.090;2024-02-21T11:55:57;11.40;1.00
4548;DHT22;2286;51.570;7.090;2024-02-21T11:58:25;11.50;1.00
4548;DHT22;2286;51.570;7.090;2024-02-21T12:00:52;11.60;1.00
4548;DHT22;2286;51.570;7.090;2024-02-21T12:03:19;11.70;1.00
4548;DHT22;2286;51.570;7.090;2024-02-21T12:05:46;11.80;1.00
4548;DHT22;2286;51.570;7.090;2024-02-21T12:08:13;11.80;1.00
4548;DHT22;2286;51.570;7.090;2024-02-21T12:10:42;11.90;1.00
4548;DHT22;2286;51.570;7.090;2024-02-21T12:13:11;11.90;1.00
4548;DHT22;2286;51.570;7.090;2024-02-21T12:15:38;11.90;1.00
4548;DHT22;2286;51.570;7.090;2024-02-21T12:18:06;12.00;99.90
4548;DHT22;2286;51.570;7.090;2024-02-21T12:20:33;12.30;99.90
4548;DHT22;2286;51.570;7.090;2024-02-21T12:23:01;12.40;99.90
4548;DHT22;2286;51.570;7.090;2024-02-21T12:25:29;12.50;99.90
4548;DHT22;2286;51.570;7.090;2024-02-21T12:27:56;12.20;99.90
4548;DHT22;2286;51.570;7.090;2024-02-21T12:30:26;12.20;99.90
4548;DHT22;2286;51.570;7.090;2024-02-21T12:32:53;12.20;99.90
4548;DHT22;2286;51.570;7.090;2024-02-21T12:35:20;12.10;99.90
4548;DHT22;2286;51.570;7.090;2024-02-21T12:37:47;12.10;99.90
4548;DHT22;2286;51.570;7.090;2024-02-21T12:40:14;12.10;99.90
4548;DHT22;2286;51.570;7.090;2024-02-21T12:42:41;12.30;99.90
4548;DHT22;2286;51.570;7.090;2024-02-21T12:45:09;12.40;99.90
4548;DHT22;2286;51.570;7.090;2024-02-21T12:47:38;12.30;99.90
4548;DHT22;2286;51.570;7.090;2024-02-21T12:50:06;12.40;99.90
4548;DHT22;2286;51.570;7.090;2024-02-21T12:52:33;12.60;99.90
4548;DHT22;2286;51.570;7.090;2024-02-21T12:55:00;12.30;99.90
4548;DHT22;2286;51.570;7.090;2024-02-21T12:57:27;12.20;99.90
4548;DHT22;2286;51.570;7.090;2024-02-21T12:59:54;12.50;99.90
4548;DHT22;2286;51.570;7.090;2024-02-21T13:02:21;12.40;99.90
4548;DHT22;2286;51.570;7.090;2024-02-21T13:04:49;12.50;99.90
4548;DHT22;2286;51.570;7.090;2024-02-21T13:07:16;12.80;99.90
4548;DHT22;2286;51.570;7.090;2024-02-21T13:09:43;12.90;99.90
4548;DHT22;2286;51.570;7.090;2024-02-21T13:12:10;13.20;99.90
4548;DHT22;2286;51.570;7.090;2024-02-21T13:14:37;13.40;99.90
4548;DHT22;2286;51.570;7.090;2024-02-21T13:17:05;13.40;99.90
4548;DHT22;2286;51.570;7.090;2024-02-21T13:19:32;13.40;99.90
4548;DHT22;2286;51.570;7.090;2024-02-21T13:22:01;13.40;99.90
4548;DHT22;2286;51.570;7.090;2024-02-21T13:24:29;13.20;99.90
4548;DHT22;2286;51.570;7.090;2024-02-21T13:26:56;13.30;99.90
4548;DHT22;2286;51.570;7.090;2024-02-21T13:29:23;13.40;99.90
4548;DHT22;2286;51.570;7.090;2024-02-21T13:31:50;13.10;99.90
4548;DHT22;2286;51.570;7.090;2024-02-21T13:34:17;13.10;99.90
4548;DHT22;2286;51.570;7.090;2024-02-21T13:36:44;13.30;99.90
4548;DHT22;2286;51.570;7.090;2024-02-21T13:39:12;13.30;99.90
4548;DHT22;2286;51.570;7.090;2024-02-21T13:41:41;13.40;99.90
4548;DHT22;2286;51.570;7.090;2024-02-21T13:44:08;13.60;99.90
4548;DHT22;2286;51.570;7.090;2024-02-21T13:46:36;13.40;99.90
4548;DHT22;2286;51.570;7.090;2024-02-21T13:49:04;13.50;99.90
4548;DHT22;2286;51.570;7.090;2024-02-21T13:51:32;13.40;99.90
4548;DHT22;2286;51.570;7.090;2024-02-21T13:53:59;13.30;99.90
4548;DHT22;2286;51.570;7.090;2024-02-21T13:56:28;13.00;99.90
4548;DHT22;2286;51.570;7.090;2024-02-21T13:58:55;13.10;99.90
4548;DHT22;2286;51.570;7.090;2024-02-21T14:01:22;13.10;99.90
4548;DHT22;2286;51.570;7.090;2024-02-21T14:03:49;13.10;99.90
4548;DHT22;2286;51.570;7.090;2024-02-21T14:06:15;13.10;99.90
4548;DHT22;2286;51.570;7.090;2024-02-21T14:08:42;13.00;99.90
4548;DHT22;2286;51.570;7.090;2024-02-21T14:11:09;13.00;99.90
4548;DHT22;2286;51.570;7.090;2024-02-21T14:13:38;13.00;99.90
4548;DHT22;2286;51.570;7.090;2024-02-21T14:16:09;12.80;99.90
4548;DHT22;2286;51.570;7.090;2024-02-21T14:18:38;12.70;99.90
4548;DHT22;2286;51.570;7.090;2024-02-21T14:21:06;12.80;99.90
4548;DHT22;2286;51.570;7.090;2024-02-21T14:23:33;12.80;99.90
4548;DHT22;2286;51.570;7.090;2024-02-21T14:26:00;13.00;99.90
4548;DHT22;2286;51.570;7.090;2024-02-21T14:28:28;13.00;99.90
4548;DHT22;2286;51.570;7.090;2024-02-21T14:30:56;13.00;99.90
4548;DHT22;2286;51.570;7.090;2024-02-21T14:33:23;13.00;99.90
4548;DHT22;2286;51.570;7.090;2024-02-21T14:35:50;13.00;99.90
4548;DHT22;2286;51.570;7.090;2024-02-21T14:38:18;13.00;99.90
4548;DHT22;2286;51.570;7.090;2024-02-21T14:40:45;13.00;99.90
4548;DHT22;2286;51.570;7.090;2024-02-21T14:43:12;13.10;99.90
4548;DHT22;2286;51.570;7.090;2024-02-21T14:45:40;13.00;99.90
4548;DHT22;2286;51.570;7.090;2024-02-21T14:48:09;12.70;99.90
4548;DHT22;2286;51.570;7.090;2024-02-21T14:50:36;12.60;99.90
4548;DHT22;2286;51.570;7.090;2024-02-21T14:53:03;12.50;99.90
4548;DHT22;2286;51.570;7.090;2024-02-21T14:55:30;12.50;99.90
4548;DHT22;2286;51.570;7.090;2024-02-21T14:57:57;12.60;99.90
4548;DHT22;2286;51.570;7.090;2024-02-21T15:00:24;12.30;99.90
4548;DHT22;2286;51.570;7.090;2024-02-21T15:02:55;12.20;99.90
4548;DHT22;2286;51.570;7.090;2024-02-21T15:05:24;12.20;99.90
4548;DHT22;2286;51.570;7.090;2024-02-21T15:07:51;12.20;99.90
4548;DHT22;2286;51.570;7.090;2024-02-21T15:10:18;12.10;99.90
4548;DHT22;2286;51.570;7.090;2024-02-21T15:12:45;12.10;99.90
4548;DHT22;2286;51.570;7.090;2024-02-21T15:15:13;12.00;99.90
4548;DHT22;2286;51.570;7.090;2024-02-21T15:17:40;12.00;99.90
4548;DHT22;2286;51.570;7.090;2024-02-21T15:20:08;12.00;99.90
4548;DHT22;2286;51.570;7.090;2024-02-21T15:22:37;12.00;99.90
4548;DHT22;2286;51.570;7.090;2024-02-21T15:25:05;11.90;99.90
4548;DHT22;2286;51.570;7.090;2024-02-21T15:27:32;11.90;99.90
4548;DHT22;2286;51.570;7.090;2024-02-21T15:29:59;11.80;99.90
4548;DHT22;2286;51.570;7.090;2024-02-21T15:32:28;11.80;99.90
4548;DHT22;2286;51.570;7.090;2024-02-21T15:34:55;11.70;99.90
4548;DHT22;2286;51.570;7.090;2024-02-21T15:37:21;11.80;99.90
4548;DHT22;2286;51.570;7.090;2024-02-21T15:39:52;11.70;99.90
4548;DHT22;2286;51.570;7.090;2024-02-21T15:42:19;11.60;99.90
4548;DHT22;2286;51.570;7.090;2024-02-21T15:44:46;11.60;99.90
4548;DHT22;2286;51.570;7.090;2024-02-21T15:47:13;11.60;99.90
4548;DHT22;2286;51.570;7.090;2024-02-21T15:49:41;11.50;99.90
4548;DHT22;2286;51.570;7.090;2024-02-21T15:52:08;11.50;99.90
4548;DHT22;2286;51.570;7.090;2024-02-21T15:54:36;11.40;99.90
4548;DHT22;2286;51.570;7.090;2024-02-21T15:57:05;11.40;99.90
4548;DHT22;2286;51.570;7.090;2024-02-21T15:59:33;11.40;99.90
4548;DHT22;2286;51.570;7.090;2024-02-21T16:02:00;11.40;99.90
4548;DHT22;2286;51.570;7.090;2024-02-21T16:04:28;11.40;99.90
4548;DHT22;2286;51.570;7.090;2024-02-21T16:06:56;11.30;99.90
4548;DHT22;2286;51.570;7.090;2024-02-21T16:09:25;11.30;99.90
4548;DHT22;2286;51.570;7.090;2024-02-21T16:11:54;11.30;99.90
4548;DHT22;2286;51.570;7.090;2024-02-21T16:14:22;11.30;99.90
4548;DHT22;2286;51.570;7.090;2024-02-21T16:16:50;11.30;99.90
4548;DHT22;2286;51.570;7.090;2024-02-21T16:19:17;11.20;99.90